Time;durP1;ratioP1;P1;durP2;ratioP2;P2;SDS_P1;SDS_P2;PMS_P1;PMS_P2;Temp;Humidity;BMP_temperature;BMP_pressure;BME280_temperature;BME280_humidity;BME280_pressure;Samples;Min_cycle;Max_cycle;Signal;HPM_P1;HPM_P2
2021/04/16 00:02:06;;;;;;;4.38;1.30;;;;;;;21.77;nan;103312.09;5053444;28;20025;-57
2021/04/16 00:04:32;;;;;;;3.78;1.65;;;;;;;21.82;nan;103309.81;5060129;28;20414;-57
2021/04/16 00:06:57;;;;;;;3.50;1.17;;;;;;;21.83;nan;103305.19;5070585;28;20111;-57
2021/04/16 00:09:24;;;;;;;3.72;1.38;;;;;;;21.85;nan;103308.69;5072983;28;20402;-57
2021/04/16 00:11:49;;;;;;;2.97;1.40;;;;;;;21.87;nan;103302.06;5073180;28;20026;-57
2021/04/16 00:14:15;;;;;;;4.32;1.65;;;;;;;21.89;nan;103301.94;5072914;28;20434;-58
2021/04/16 00:16:40;;;;;;;4.18;1.73;;;;;;;21.89;nan;103300.06;5072892;28;20036;-57
2021/04/16 00:19:09;;;;;;;5.38;1.90;;;;;;;21.96;nan;103302.25;5073203;28;20079;-58
2021/04/16 00:21:35;;;;;;;2.25;1.10;;;;;;;21.32;nan;103301.41;5072847;28;20448;-57
2021/04/16 00:24:01;;;;;;;4.13;1.65;;;;;;;21.02;nan;103301.28;5072919;28;20043;-58
2021/04/16 00:26:27;;;;;;;3.88;1.20;;;;;;;20.84;nan;103297.38;5072623;28;20459;-57
2021/04/16 00:28:52;;;;;;;4.70;1.88;;;;;;;20.77;nan;103304.34;5056300;28;20029;-58
2021/04/16 00:31:21;;;;;;;2.33;1.23;;;;;;;20.65;nan;103301.63;5053276;28;20051;-57
2021/04/16 00:33:46;;;;;;;4.68;1.70;;;;;;;20.63;nan;103298.16;5053612;28;20044;-57
2021/04/16 00:36:12;;;;;;;3.85;1.60;;;;;;;20.59;nan;103307.59;5072557;28;20032;-58
2021/04/16 00:38:38;;;;;;;6.65;1.67;;;;;;;20.52;nan;103306.38;5072796;28;20099;-57
2021/04/16 00:41:07;;;;;;;5.82;1.55;;;;;;;20.49;nan;103311.22;5072590;28;20532;-57
2021/04/16 00:43:34;;;;;;;4.65;1.58;;;;;;;20.48;nan;103306.75;5072656;28;20036;-57
2021/04/16 00:46:16;;;;;;;2.08;1.10;;;;;;;20.42;nan;103310.84;5072641;28;20052;-56
2021/04/16 00:48:48;;;;;;;3.50;1.65;;;;;;;20.39;nan;103300.16;5072480;28;20570;-57
2021/04/16 00:51:20;;;;;;;3.53;1.63;;;;;;;20.40;nan;103304.63;5072447;28;20025;-57
2021/04/16 00:53:46;;;;;;;4.93;1.42;;;;;;;20.34;nan;103307.88;5072640;28;20353;-57
2021/04/16 00:56:12;;;;;;;3.97;1.17;;;;;;;20.35;nan;103304.13;5072135;28;20480;-57
2021/04/16 00:58:37;;;;;;;3.65;1.30;;;;;;;20.35;nan;103304.13;5072054;28;20245;-57
2021/04/16 01:01:03;;;;;;;3.83;1.27;;;;;;;20.34;nan;103296.94;5072656;28;20142;-57
2021/04/16 01:03:29;;;;;;;2.47;1.42;;;;;;;20.30;nan;103289.97;5072292;28;20044;-57
2021/04/16 01:05:57;;;;;;;4.55;1.20;;;;;;;20.31;nan;103291.69;5072000;28;20399;-57
2021/04/16 01:08:22;;;;;;;3.72;1.50;;;;;;;20.36;nan;103294.94;5072413;28;20025;-57
2021/04/16 01:10:51;;;;;;;4.90;1.42;;;;;;;20.35;nan;103288.63;5072509;28;20371;-57
2021/04/16 01:13:19;;;;;;;6.20;1.75;;;;;;;20.33;nan;103284.28;5071721;28;20391;-57
2021/04/16 01:15:52;;;;;;;2.58;1.40;;;;;;;20.27;nan;103282.03;5072428;28;20094;-57
2021/04/16 01:18:20;;;;;;;3.25;1.50;;;;;;;20.35;nan;103277.69;5072102;28;20020;-57
2021/04/16 01:20:48;;;;;;;3.40;1.25;;;;;;;20.33;nan;103284.28;5072302;28;20050;-57
2021/04/16 01:23:15;;;;;;;5.07;1.55;;;;;;;20.32;nan;103287.97;5072097;28;20039;-57
2021/04/16 01:25:42;;;;;;;3.95;1.52;;;;;;;20.30;nan;103284.50;5072268;28;20467;-58
2021/04/16 01:28:08;;;;;;;4.68;1.50;;;;;;;20.29;nan;103278.16;5063024;28;20025;-57
2021/04/16 01:30:34;;;;;;;3.33;1.40;;;;;;;20.46;nan;103274.06;5051981;28;20411;-58
2021/04/16 01:33:01;;;;;;;3.20;1.42;;;;;;;20.91;nan;103271.22;5052203;28;20079;-57
2021/04/16 01:35:31;;;;;;;4.38;1.48;;;;;;;21.09;nan;103272.41;5068397;28;20149;-57
2021/04/16 01:37:57;;;;;;;2.63;1.33;;;;;;;21.28;nan;103268.97;5071859;28;20112;-57
2021/04/16 01:40:23;;;;;;;2.97;1.15;;;;;;;21.36;nan;103268.31;5071697;28;20107;-57
2021/04/16 01:42:49;;;;;;;4.20;1.42;;;;;;;21.46;nan;103269.25;5072169;28;20025;-57
2021/04/16 01:45:24;;;;;;;4.75;1.38;;;;;;;21.53;nan;103273.19;5071967;28;20090;-58
2021/04/16 01:48:00;;;;;;;3.33;1.35;;;;;;;21.57;nan;103270.03;5072152;28;20040;-57
2021/04/16 01:50:26;;;;;;;3.92;1.40;;;;;;;21.59;nan;103269.91;5071689;28;20029;-57
2021/04/16 01:52:52;;;;;;;4.00;1.20;;;;;;;21.65;nan;103263.88;5072095;28;20032;-57
2021/04/16 01:55:18;;;;;;;2.15;1.30;;;;;;;21.71;nan;103260.63;5071563;28;20070;-57
2021/04/16 01:57:46;;;;;;;4.93;1.38;;;;;;;21.69;nan;103265.38;5071981;28;20031;-57
2021/04/16 02:00:36;;;;;;;3.17;1.50;;;;;;;21.70;nan;103253.41;5071711;28;20023;-57
2021/04/16 02:03:02;;;;;;;2.50;1.13;;;;;;;21.75;nan;103259.34;5070469;28;20090;-57
2021/04/16 02:05:28;;;;;;;5.05;1.83;;;;;;;21.77;nan;103260.06;5071744;28;20066;-57
2021/04/16 02:07:54;;;;;;;5.15;1.75;;;;;;;21.75;nan;103253.88;5071727;28;20020;-57
2021/04/16 02:10:20;;;;;;;6.88;1.88;;;;;;;21.76;nan;103254.72;5072187;28;20031;-57
2021/04/16 02:12:45;;;;;;;5.57;2.33;;;;;;;21.78;nan;103248.09;5075476;28;20429;-57
2021/04/16 02:15:11;;;;;;;4.20;1.42;;;;;;;21.78;nan;103259.06;5075216;28;20038;-57
2021/04/16 02:17:37;;;;;;;4.80;1.35;;;;;;;21.81;nan;103256.03;5075213;28;20033;-57
2021/04/16 02:20:08;;;;;;;4.20;1.42;;;;;;;21.78;nan;103248.09;5075252;28;20467;-57
2021/04/16 02:22:33;;;;;;;4.32;1.30;;;;;;;21.85;nan;103249.31;5074949;28;20032;-57
2021/04/16 02:24:59;;;;;;;3.60;1.42;;;;;;;21.79;nan;103249.84;5075218;28;20524;-57
2021/04/16 02:27:26;;;;;;;3.33;1.38;;;;;;;21.58;nan;103252.63;5071836;28;20029;-57
2021/04/16 02:29:52;;;;;;;6.63;1.63;;;;;;;21.03;nan;103253.78;5055252;28;20048;-57
2021/04/16 02:32:18;;;;;;;6.35;2.10;;;;;;;20.80;nan;103243.91;5053483;28;20017;-57
2021/04/16 02:34:44;;;;;;;4.38;1.60;;;;;;;20.67;nan;103238.66;5055303;28;20033;-57
2021/04/16 02:37:13;;;;;;;5.50;1.90;;;;;;;20.58;nan;103248.47;5060830;28;20392;-57
2021/04/16 02:39:39;;;;;;;3.15;1.45;;;;;;;20.52;nan;103246.25;5074976;28;20406;-57
2021/04/16 02:42:05;;;;;;;3.88;1.30;;;;;;;20.37;nan;103239.31;5074693;28;20040;-57
2021/04/16 02:44:31;;;;;;;6.70;1.67;;;;;;;20.42;nan;103250.75;5074515;28;20062;-57
2021/04/16 02:46:57;;;;;;;5.22;1.23;;;;;;;20.36;nan;103240.31;5074934;28;20142;-57
2021/04/16 02:49:23;;;;;;;4.53;1.95;;;;;;;20.31;nan;103237.06;5074585;28;20467;-57
2021/04/16 02:51:49;;;;;;;5.10;1.95;;;;;;;20.29;nan;103236.31;5074815;28;20345;-57
2021/04/16 02:54:15;;;;;;;2.60;1.02;;;;;;;20.18;nan;103146.22;5074444;28;20508;-57
2021/04/16 02:56:40;;;;;;;4.78;1.80;;;;;;;20.19;nan;103145.22;5073084;28;20122;-57
2021/04/16 02:59:06;;;;;;;5.63;1.25;;;;;;;20.26;nan;103140.97;5073215;28;20115;-57
2021/04/16 03:01:31;;;;;;;5.07;1.55;;;;;;;20.19;nan;103266.28;5074015;28;20067;-57
2021/04/16 03:03:57;;;;;;;3.03;1.42;;;;;;;20.17;nan;103231.88;5074604;28;20020;-57
2021/04/16 03:06:23;;;;;;;5.55;1.60;;;;;;;20.14;nan;103239.31;5072415;28;20543;-57
2021/04/16 03:08:56;;;;;;;3.15;1.10;;;;;;;20.11;nan;103231.38;5074075;28;20035;-57
2021/04/16 03:11:24;;;;;;;4.68;1.83;;;;;;;20.19;nan;103235.38;5074202;28;20017;-57
2021/04/16 03:13:49;;;;;;;3.60;1.27;;;;;;;20.12;nan;103224.06;5074346;28;20107;-57
2021/04/16 03:16:15;;;;;;;4.10;1.38;;;;;;;20.11;nan;103215.00;5072691;28;20473;-58
2021/04/16 03:18:41;;;;;;;2.40;1.33;;;;;;;20.16;nan;103216.50;5074289;28;20078;-57
2021/04/16 03:21:07;;;;;;;2.67;1.60;;;;;;;20.09;nan;103211.53;5073809;28;20029;-57
2021/04/16 03:23:33;;;;;;;5.35;1.63;;;;;;;20.12;nan;103214.00;5073713;28;20021;-57
2021/04/16 03:25:58;;;;;;;4.93;1.60;;;;;;;20.09;nan;103224.31;5074063;28;20031;-57
2021/04/16 03:28:23;;;;;;;5.50;2.10;;;;;;;20.10;nan;103224.19;5062404;28;20546;-57
2021/04/16 03:30:54;;;;;;;2.60;1.40;;;;;;;20.07;nan;103224.44;5054105;28;20389;-57
2021/04/16 03:33:19;;;;;;;4.15;1.48;;;;;;;20.07;nan;103224.44;5053733;28;20067;-57
2021/04/16 03:35:45;;;;;;;5.90;1.65;;;;;;;20.12;nan;103227.66;5053985;28;20028;-57
2021/04/16 03:38:11;;;;;;;3.20;1.27;;;;;;;20.59;nan;103222.88;5070063;28;20078;-57
2021/04/16 03:40:37;;;;;;;5.72;1.60;;;;;;;20.88;nan;103230.47;5073746;28;20416;-57
2021/04/16 03:43:02;;;;;;;3.47;1.50;;;;;;;21.04;nan;103230.91;5073673;28;20021;-57
2021/04/16 03:45:28;;;;;;;4.18;1.33;;;;;;;21.11;nan;103221.16;5073566;28;20031;-57
2021/04/16 03:47:55;;;;;;;3.45;1.10;;;;;;;21.26;nan;103225.31;5073694;28;20033;-57
2021/04/16 03:50:27;;;;;;;3.20;1.23;;;;;;;21.29;nan;103225.06;5073211;28;20463;-57
2021/04/16 03:52:53;;;;;;;4.40;1.67;;;;;;;21.36;nan;103225.41;5073574;28;20073;-57
2021/04/16 03:55:21;;;;;;;5.53;1.45;;;;;;;21.44;nan;103220.13;5073113;28;20036;-57
2021/04/16 03:57:46;;;;;;;4.25;1.50;;;;;;;21.43;nan;103223.00;5071957;28;20017;-57
2021/04/16 04:00:16;;;;;;;7.07;1.55;;;;;;;21.44;nan;103225.59;5051927;28;20061;-57
2021/04/16 04:02:41;;;;;;;6.70;1.65;;;;;;;22.40;nan;103222.41;5053129;28;20566;-57
2021/04/16 04:05:08;;;;;;;2.72;1.45;;;;;;;22.91;nan;103228.69;5053234;28;20108;-57
2021/04/16 04:07:33;;;;;;;4.65;1.55;;;;;;;23.11;nan;103222.19;5064129;28;20028;-57
2021/04/16 04:09:59;;;;;;;2.80;1.42;;;;;;;23.11;nan;103220.31;5073233;28;20032;-57
2021/04/16 04:12:25;;;;;;;3.75;1.30;;;;;;;22.81;nan;103217.69;5072837;28;20052;-58
2021/04/16 04:14:50;;;;;;;2.42;1.35;;;;;;;22.78;nan;103215.22;5073115;28;20029;-57
2021/04/16 04:17:42;;;;;;;4.80;2.35;;;;;;;22.73;nan;103223.03;5072887;28;20055;-57
2021/04/16 04:20:30;;;;;;;3.60;1.73;;;;;;;22.71;nan;103214.09;5070747;28;20081;-57
2021/04/16 04:22:56;;;;;;;2.35;1.27;;;;;;;22.64;nan;103185.50;5072529;28;20081;-57
2021/04/16 04:25:24;;;;;;;3.55;1.20;;;;;;;22.62;nan;103203.97;5072730;28;20036;-57
2021/04/16 04:27:51;;;;;;;4.20;1.48;;;;;;;22.57;nan;103195.31;5072855;28;20020;-57
2021/04/16 04:30:19;;;;;;;3.35;1.38;;;;;;;22.57;nan;103195.31;5072656;28;20021;-57
2021/04/16 04:32:45;;;;;;;4.07;1.77;;;;;;;22.55;nan;103203.69;5072345;28;20031;-57
2021/04/16 04:35:10;;;;;;;2.35;1.55;;;;;;;22.54;nan;103201.09;5072554;28;20028;-57
2021/04/16 04:37:36;;;;;;;2.70;1.20;;;;;;;22.56;nan;103204.53;5072331;28;20475;-57
2021/04/16 04:40:02;;;;;;;3.30;1.40;;;;;;;22.54;nan;103201.09;5072717;28;20459;-57
2021/04/16 04:42:27;;;;;;;4.40;1.08;;;;;;;22.54;nan;103201.09;5072273;28;20028;-57
2021/04/16 04:44:52;;;;;;;5.43;2.22;;;;;;;22.56;nan;103204.53;5071447;28;20020;-57
2021/04/16 04:47:17;;;;;;;3.33;1.45;;;;;;;22.54;nan;103201.94;5072094;28;20024;-57
2021/04/16 04:49:43;;;;;;;2.97;1.10;;;;;;;22.52;nan;103198.50;5072648;28;20042;-57
2021/04/16 04:52:22;;;;;;;4.43;1.73;;;;;;;22.43;nan;103205.69;5072517;28;20459;-57
2021/04/16 04:54:50;;;;;;;3.78;1.83;;;;;;;22.44;nan;103201.06;5072478;28;20052;-57
2021/04/16 04:57:18;;;;;;;2.90;1.23;;;;;;;22.43;nan;103213.03;5072380;28;20103;-57
2021/04/16 04:59:44;;;;;;;3.88;1.42;;;;;;;22.40;nan;103211.44;5072549;28;20024;-57
2021/04/16 05:02:10;;;;;;;4.07;1.50;;;;;;;22.38;nan;103213.47;5072277;28;20024;-57
2021/04/16 05:04:35;;;;;;;3.40;1.65;;;;;;;22.36;nan;103203.66;5072354;28;20479;-57
2021/04/16 05:07:01;;;;;;;3.30;1.35;;;;;;;22.34;nan;103211.13;5072017;28;20124;-57
2021/04/16 05:09:26;;;;;;;3.22;1.30;;;;;;;22.34;nan;103198.31;5072292;28;20056;-57
2021/04/16 05:11:51;;;;;;;2.75;1.05;;;;;;;22.39;nan;103203.38;5072412;28;20020;-57
2021/04/16 05:14:17;;;;;;;3.63;1.38;;;;;;;22.37;nan;103206.25;5072146;28;20063;-57
2021/04/16 05:16:42;;;;;;;3.55;1.52;;;;;;;22.44;nan;103201.91;5072229;28;20387;-57
2021/04/16 05:19:08;;;;;;;3.97;1.30;;;;;;;22.42;nan;103203.94;5072002;28;20099;-57
2021/04/16 05:21:36;;;;;;;3.47;1.30;;;;;;;22.50;nan;103206.81;5072195;28;20031;-57
2021/04/16 05:24:02;;;;;;;3.05;1.40;;;;;;;22.44;nan;103204.66;5072544;28;20025;-57
2021/04/16 05:26:27;;;;;;;3.42;1.65;;;;;;;22.47;nan;103209.84;5072293;28;20157;-57
2021/04/16 05:28:52;;;;;;;4.28;1.45;;;;;;;22.50;nan;103195.84;5057261;28;20017;-57
2021/04/16 05:31:18;;;;;;;2.95;1.10;;;;;;;22.42;nan;103198.47;5052006;28;20025;-57
2021/04/16 05:33:43;;;;;;;2.75;1.40;;;;;;;22.46;nan;103205.38;5052225;28;20368;-57
2021/04/16 05:36:08;;;;;;;2.78;1.40;;;;;;;22.46;nan;103205.38;5053412;28;20161;-57
2021/04/16 05:38:34;;;;;;;3.45;1.33;;;;;;;22.45;nan;103202.78;5071736;28;20427;-57
2021/04/16 05:40:59;;;;;;;5.43;1.73;;;;;;;22.47;nan;103207.13;5072118;28;20032;-56
2021/04/16 05:43:24;;;;;;;3.10;1.23;;;;;;;22.47;nan;103201.63;5072516;28;20017;-57
2021/04/16 05:45:49;;;;;;;3.92;1.67;;;;;;;22.41;nan;103204.09;5073781;28;20021;-57
2021/04/16 05:48:15;;;;;;;3.63;1.42;;;;;;;22.35;nan;103200.06;5075769;28;20021;-57
2021/04/16 05:50:40;;;;;;;3.67;1.45;;;;;;;22.40;nan;103200.47;5075761;28;20138;-57
2021/04/16 05:53:05;;;;;;;2.88;1.60;;;;;;;22.37;nan;103195.28;5074524;28;20396;-56
2021/04/16 05:55:31;;;;;;;3.33;1.50;;;;;;;22.40;nan;103200.47;5075527;28;20229;-57
2021/04/16 05:57:58;;;;;;;3.05;1.35;;;;;;;22.35;nan;103202.78;5058535;28;20376;-57
2021/04/16 06:00:23;;;;;;;3.00;1.55;;;;;;;22.36;nan;103199.03;5055544;28;20033;-56
2021/04/16 06:02:49;;;;;;;2.88;1.45;;;;;;;22.26;nan;103197.28;5059990;28;20035;-57
2021/04/16 06:05:17;;;;;;;4.00;1.40;;;;;;;22.29;nan;103206.06;5067192;28;20433;-57
2021/04/16 06:07:42;;;;;;;3.15;1.23;;;;;;;22.30;nan;103206.94;5065316;28;20039;-57
2021/04/16 06:10:09;;;;;;;3.97;1.80;;;;;;;22.23;nan;103203.03;5065683;28;20032;-57
2021/04/16 06:12:37;;;;;;;4.00;1.60;;;;;;;22.16;nan;103205.47;5065502;28;20021;-57
2021/04/16 06:15:08;;;;;;;6.20;1.85;;;;;;;22.23;nan;103203.03;5064815;28;20509;-57
2021/04/16 06:17:34;;;;;;;2.65;1.13;;;;;;;22.22;nan;103202.19;5065298;28;20035;-57
2021/04/16 06:20:00;;;;;;;3.63;1.83;;;;;;;22.26;nan;103198.13;5063867;28;20502;-57
2021/04/16 06:22:25;;;;;;;3.63;1.35;;;;;;;22.18;nan;103201.59;5067915;28;20024;-57
2021/04/16 06:24:50;;;;;;;3.20;1.52;;;;;;;22.22;nan;103196.69;5068904;28;20024;-57
2021/04/16 06:27:17;;;;;;;2.20;1.35;;;;;;;22.25;nan;103201.91;5074994;28;20024;-57
2021/04/16 06:29:42;;;;;;;3.65;1.38;;;;;;;22.30;nan;103205.06;5074533;28;20582;-57
2021/04/16 06:32:09;;;;;;;3.75;1.40;;;;;;;22.16;nan;103191.75;5074902;28;20071;-57
2021/04/16 06:34:34;;;;;;;3.38;1.30;;;;;;;22.14;nan;103204.75;5074589;28;20047;-57
2021/04/16 06:37:00;;;;;;;3.28;1.60;;;;;;;22.18;nan;103189.78;5070849;28;20448;-57
2021/04/16 06:39:25;;;;;;;4.15;1.70;;;;;;;22.18;nan;103189.78;5074055;28;20078;-57
2021/04/16 06:41:51;;;;;;;4.10;1.98;;;;;;;22.31;nan;103198.56;5074636;28;20064;-57
2021/04/16 06:44:24;;;;;;;2.78;1.42;;;;;;;22.26;nan;103198.13;5074516;28;20436;-56
2021/04/16 06:46:57;;;;;;;2.30;1.30;;;;;;;22.25;nan;103201.03;5074948;28;20078;-57
2021/04/16 06:49:23;;;;;;;4.97;1.83;;;;;;;22.15;nan;103195.50;5072997;28;20360;-57
2021/04/16 06:52:16;;;;;;;3.80;1.40;;;;;;;22.19;nan;103199.72;5052235;28;20025;-57
2021/04/16 06:55:23;;;;;;;2.88;1.45;;;;;;;22.10;nan;103197.81;5054358;28;20041;-57
2021/04/16 06:58:10;;;;;;;2.42;1.27;;;;;;;22.12;nan;103198.53;5022474;28;20087;-57
2021/04/16 07:01:03;;;;;;;4.57;1.60;;;;;;;22.24;nan;103197.41;5048934;28;20071;-56
2021/04/16 07:03:32;;;;;;;3.45;1.52;;;;;;;22.15;nan;103195.50;5036062;28;20033;-57
2021/04/16 07:06:07;;;;;;;3.58;1.70;;;;;;;22.13;nan;103197.53;5040511;28;20070;-57
2021/04/16 07:08:40;;;;;;;2.90;1.25;;;;;;;22.12;nan;103201.28;5031872;28;20037;-57
2021/04/16 07:11:26;;;;;;;3.33;1.55;;;;;;;22.20;nan;103199.59;5045136;28;20033;-57
2021/04/16 07:13:53;;;;;;;4.35;1.27;;;;;;;22.32;nan;103194.81;5051237;28;20033;-58
2021/04/16 07:16:22;;;;;;;3.28;1.42;;;;;;;22.26;nan;103187.19;5038213;28;20044;-57
2021/04/16 07:19:03;;;;;;;4.88;1.92;;;;;;;22.23;nan;103198.44;5031982;28;20025;-57
2021/04/16 07:21:28;;;;;;;5.85;1.70;;;;;;;22.27;nan;103190.78;5031596;28;20065;-57
2021/04/16 07:24:00;;;;;;;3.58;1.70;;;;;;;22.23;nan;103190.22;5031955;28;20464;-57
2021/04/16 07:26:40;;;;;;;2.22;1.08;;;;;;;22.25;nan;103193.66;5032432;28;20059;-57
2021/04/16 07:29:07;;;;;;;4.90;1.67;;;;;;;22.25;nan;103196.41;5031758;28;20041;-57
2021/04/16 07:31:42;;;;;;;3.75;1.45;;;;;;;22.22;nan;103196.69;5015011;28;20063;-57
2021/04/16 07:34:17;;;;;;;4.07;1.45;;;;;;;22.19;nan;103186.03;5041981;28;20082;-57
2021/04/16 07:36:43;;;;;;;;;;;;;;;22.27;nan;103183.44;5066199;28;20081;-57
2021/04/16 07:39:15;;;;;;;2.55;1.40;;;;;;;22.21;nan;103184.88;5070598;28;19916;-58
2021/04/16 07:41:55;;;;;;;3.95;1.75;;;;;;;22.12;nan;103184.84;5069273;28;20024;-57
2021/04/16 07:44:25;;;;;;;2.95;1.25;;;;;;;22.25;nan;103190.06;5067628;28;20073;-58
2021/04/16 07:46:59;;;;;;;5.40;1.42;;;;;;;21.62;nan;103190.25;5072537;28;20020;-57
2021/04/16 07:49:59;;;;;;;4.47;1.73;;;;;;;21.31;nan;103183.88;5072706;28;20111;-57
2021/04/16 07:52:42;;;;;;;4.85;1.63;;;;;;;21.16;nan;103188.78;5066211;28;20044;-58
2021/04/16 07:55:23;;;;;;;5.15;1.92;;;;;;;21.07;nan;103203.28;5064966;28;20044;-57
2021/04/16 07:58:00;;;;;;;4.13;1.65;;;;;;;20.88;nan;103201.25;5066169;28;20403;-59
2021/04/16 08:00:32;;;;;;;3.97;1.48;;;;;;;20.75;nan;103200.56;5071318;28;20062;-58
2021/04/16 08:03:14;;;;;;;1.90;1.10;;;;;;;20.68;nan;103211.19;5061892;28;20485;-58
2021/04/16 08:05:43;;;;;;;1.48;0.50;;;;;;;20.63;nan;103205.22;5073301;28;20403;-57
2021/04/16 08:08:09;;;;;;;3.15;0.90;;;;;;;20.48;nan;103201.03;5072166;28;20032;-58
2021/04/16 08:10:37;;;;;;;2.70;1.17;;;;;;;20.39;nan;103199.06;5063548;28;20181;-58
2021/04/16 08:13:13;;;;;;;3.13;0.95;;;;;;;20.39;nan;103196.31;5072479;28;20056;-58
2021/04/16 08:15:39;;;;;;;3.78;1.30;;;;;;;20.34;nan;103212.25;5069815;28;20020;-58
2021/04/16 08:18:32;;;;;;;4.07;1.40;;;;;;;20.25;nan;103210.25;5064103;28;20029;-58
2021/04/16 08:21:18;;;;;;;3.95;1.52;;;;;;;20.18;nan;103206.31;5056996;28;20041;-58
2021/04/16 08:24:00;;;;;;;4.32;1.00;;;;;;;20.20;nan;103207.06;5068060;28;20025;-58
2021/04/16 08:26:32;;;;;;;3.22;1.30;;;;;;;20.29;nan;103195.34;5064199;28;20036;-58
2021/04/16 08:29:26;;;;;;;4.30;1.25;;;;;;;20.21;nan;103197.84;5062000;28;20279;-58
2021/04/16 08:32:01;;;;;;;2.88;1.00;;;;;;;20.30;nan;103202.53;5066164;28;20035;-59
2021/04/16 08:34:35;;;;;;;4.18;1.05;;;;;;;20.32;nan;103200.53;5066359;28;20063;-58
2021/04/16 08:37:01;;;;;;;5.38;1.15;;;;;;;20.05;nan;103193.66;5064194;28;20107;-58
2021/04/16 08:39:31;;;;;;;2.00;0.85;;;;;;;20.11;nan;103193.16;5060424;28;20024;-58
2021/04/16 08:41:58;;;;;;;2.53;0.80;;;;;;;20.26;nan;103201.06;5062985;28;20024;-59
2021/04/16 08:44:27;;;;;;;5.28;1.40;;;;;;;20.29;nan;103195.34;5064255;28;20039;-59
2021/04/16 08:46:55;;;;;;;1.30;0.68;;;;;;;20.85;nan;103187.88;5063722;28;20480;-58
2021/04/16 08:49:24;;;;;;;3.08;0.93;;;;;;;21.23;nan;103187.25;5061017;28;20039;-58
2021/04/16 08:51:54;;;;;;;2.08;0.80;;;;;;;21.34;nan;103200.06;5065907;28;20028;-58
2021/04/16 08:54:38;;;;;;;1.88;0.70;;;;;;;21.37;nan;103198.91;5063350;28;20037;-58
2021/04/16 08:57:19;;;;;;;2.72;1.10;;;;;;;21.38;nan;103181.47;5065339;28;20082;-59
2021/04/16 09:00:07;;;;;;;2.40;1.10;;;;;;;21.44;nan;103180.94;5064365;28;20112;-59
2021/04/16 09:02:55;;;;;;;2.17;0.80;;;;;;;21.56;nan;103188.06;5061815;28;20020;-58
2021/04/16 09:05:30;;;;;;;1.67;0.73;;;;;;;21.59;nan;103185.03;5061483;28;20546;-58
2021/04/16 09:08:08;;;;;;;2.17;1.20;;;;;;;21.64;nan;103196.44;5068357;28;20028;-58
2021/04/16 09:10:51;;;;;;;2.80;0.90;;;;;;;21.64;nan;103190.97;5071271;28;20086;-58
2021/04/16 09:13:38;;;;;;;2.63;1.00;;;;;;;21.70;nan;103182.22;5069588;28;20024;-58
2021/04/16 09:16:15;;;;;;;1.10;0.70;;;;;;;21.77;nan;103191.59;5069443;28;20058;-58
2021/04/16 09:18:45;;;;;;;2.42;0.93;;;;;;;21.88;nan;103186.03;5071222;28;20039;-59
2021/04/16 09:21:18;;;;;;;1.27;0.70;;;;;;;21.49;nan;103184.13;5062619;28;20024;-58
2021/04/16 09:23:46;;;;;;;2.25;1.20;;;;;;;21.03;nan;103185.41;5058290;28;20388;-59
2021/04/16 09:26:44;;;;;;;2.92;1.10;;;;;;;20.77;nan;103167.63;5076545;28;20020;-59
2021/04/16 09:29:35;;;;;;;2.38;0.88;;;;;;;20.70;nan;103184.56;5075881;28;20028;-60
2021/04/16 09:32:04;;;;;;;1.52;0.57;;;;;;;20.63;nan;103186.06;5072384;28;20031;-59
2021/04/16 09:34:50;;;;;;;5.15;1.48;;;;;;;20.75;nan;103186.03;5067577;28;20020;-57
2021/04/16 09:37:36;;;;;;;2.13;1.00;;;;;;;20.67;nan;103192.19;5071756;28;20040;-58
2021/04/16 09:40:18;;;;;;;4.65;1.17;;;;;;;20.59;nan;103190.06;5065957;28;20029;-58
2021/04/16 09:42:49;;;;;;;3.45;1.10;;;;;;;20.56;nan;103189.47;5075561;28;20459;-58
2021/04/16 09:45:34;;;;;;;3.92;1.35;;;;;;;20.55;nan;103190.47;5071893;28;20119;-59
2021/04/16 09:48:08;;;;;;;2.40;0.70;;;;;;;20.52;nan;103186.13;5074716;28;20029;-60
2021/04/16 09:50:39;;;;;;;3.88;1.58;;;;;;;20.57;nan;103183.88;5073145;28;20086;-59
2021/04/16 09:53:10;;;;;;;3.10;1.17;;;;;;;20.50;nan;103185.41;5065083;28;20024;-58
2021/04/16 09:56:05;;;;;;;3.55;1.25;;;;;;;20.48;nan;103195.56;5063268;28;20044;-58
2021/04/16 10:00:55;;;;;;;4.13;1.33;;;;;;;20.46;nan;103175.69;5069508;28;20502;-59
2021/04/16 10:03:25;;;;;;;2.00;0.90;;;;;;;20.61;nan;103188.06;5072666;28;20416;-59
2021/04/16 10:05:51;;;;;;;2.50;1.38;;;;;;;20.46;nan;103183.91;5073507;28;20277;-59
2021/04/16 10:08:28;;;;;;;3.55;0.85;;;;;;;20.37;nan;103174.59;5074102;28;20032;-60
2021/04/16 10:11:02;;;;;;;2.67;1.13;;;;;;;20.40;nan;103176.19;5068395;28;20031;-59
2021/04/16 10:13:32;;;;;;;1.83;1.00;;;;;;;20.38;nan;103161.81;5068539;28;20052;-59
2021/04/16 10:15:59;;;;;;;2.83;1.10;;;;;;;20.47;nan;103179.31;5067504;28;20043;-59
2021/04/16 10:18:39;;;;;;;3.47;1.15;;;;;;;20.39;nan;103169.00;5073673;28;20056;-60
2021/04/16 10:21:07;;;;;;;7.15;1.63;;;;;;;20.72;nan;103170.78;5067490;28;20439;-60
2021/04/16 10:23:42;;;;;;;1.58;0.70;;;;;;;21.24;nan;103172.63;5069504;28;20024;-59
2021/04/16 10:27:37;;;;;;;2.30;1.00;;;;;;;21.40;nan;103165.78;5074468;28;20021;-61
2021/04/16 10:35:27;;;;;;;1.55;0.80;;;;;;;21.52;nan;103186.59;5072938;28;20440;-59
2021/04/16 10:41:43;;;;;;;2.15;1.05;;;;;;;21.58;nan;103169.63;5068572;28;20418;-59
2021/04/16 10:56:17;;;;;;;2.95;0.93;;;;;;;20.61;nan;103168.94;5070148;28;20067;-59
2021/04/16 12:39:14;;;;;;;2.90;1.10;;;;;;;21.75;nan;103143.47;4982792;28;20044;-60
2021/04/16 12:41:43;;;;;;;2.90;1.50;;;;;;;21.64;nan;103144.44;4977767;28;20047;-61
2021/04/16 12:44:19;;;;;;;2.28;1.00;;;;;;;21.70;nan;103118.38;4982953;28;20034;-60
2021/04/16 12:46:44;;;;;;;1.88;1.02;;;;;;;21.75;nan;103133.38;4993500;28;20393;-60
2021/04/16 12:49:09;;;;;;;2.45;0.95;;;;;;;21.74;nan;103128.91;4986679;28;20026;-61
2021/04/16 12:51:35;;;;;;;3.80;1.58;;;;;;;21.81;nan;103138.28;5055025;28;20040;-60
2021/04/16 12:54:01;;;;;;;3.50;1.02;;;;;;;21.77;nan;103131.38;5071627;28;20025;-63
2021/04/16 12:56:34;;;;;;;5.20;0.93;;;;;;;21.80;nan;103147.50;5070438;28;20040;-60
2021/04/16 12:59:06;;;;;;;1.38;0.75;;;;;;;21.68;nan;103120.41;5067949;28;20082;-59
2021/04/16 13:01:32;;;;;;;3.75;1.15;;;;;;;21.74;nan;103128.06;5067097;28;20464;-60
2021/04/16 13:03:58;;;;;;;2.30;0.70;;;;;;;21.62;nan;103132.75;5064516;28;20036;-60
2021/04/16 13:06:30;;;;;;;2.10;0.95;;;;;;;21.81;nan;103124.59;5072059;28;20029;-60
2021/04/16 13:08:56;;;;;;;6.38;1.33;;;;;;;21.82;nan;103123.59;5069446;28;20070;-59
2021/04/16 13:11:22;;;;;;;3.38;1.15;;;;;;;21.84;nan;103120.75;5061125;28;20016;-59
2021/04/16 13:13:49;;;;;;;1.23;0.90;;;;;;;21.92;nan;103118.16;5066112;28;20033;-60
2021/04/16 13:16:15;;;;;;;1.77;0.93;;;;;;;21.91;nan;103116.41;5066647;28;20025;-59
2021/04/16 13:18:43;;;;;;;3.05;1.00;;;;;;;21.90;nan;103101.88;5063320;28;20032;-59
2021/04/16 13:21:19;;;;;;;2.35;1.10;;;;;;;21.91;nan;103114.53;5062027;28;20475;-59
2021/04/16 13:23:44;;;;;;;1.40;0.60;;;;;;;21.90;nan;103104.59;5058665;28;20025;-59
2021/04/16 13:26:10;;;;;;;2.05;1.17;;;;;;;21.86;nan;103096.81;5065053;28;20035;-59
2021/04/16 13:28:36;;;;;;;3.30;1.00;;;;;;;21.99;nan;103096.53;5060882;28;20033;-59
2021/04/16 13:31:01;;;;;;;2.70;1.02;;;;;;;21.93;nan;103093.34;5068458;28;20108;-59
2021/04/16 13:33:28;;;;;;;2.00;1.02;;;;;;;22.00;nan;103087.31;5071731;28;20035;-59
2021/04/16 13:35:54;;;;;;;2.30;1.08;;;;;;;21.96;nan;103094.09;5067101;28;20051;-59
2021/04/16 13:38:24;;;;;;;4.55;1.67;;;;;;;21.99;nan;103085.56;5070526;28;20133;-59
2021/04/16 13:40:50;;;;;;;3.28;0.95;;;;;;;21.96;nan;103074.91;5067059;28;20020;-59
2021/04/16 13:43:15;;;;;;;2.60;1.27;;;;;;;21.93;nan;103065.97;5070927;28;20138;-60
2021/04/16 13:45:41;;;;;;;2.42;0.80;;;;;;;21.98;nan;103067.41;5071866;28;20035;-59
2021/04/16 13:48:07;;;;;;;3.00;0.95;;;;;;;22.01;nan;103072.63;5059818;28;20056;-59
2021/04/16 13:50:33;;;;;;;2.10;0.85;;;;;;;21.88;nan;103079.22;5068751;28;20024;-59
2021/04/16 13:52:58;;;;;;;2.67;1.30;;;;;;;21.91;nan;103087.16;5052379;28;20372;-59
2021/04/16 13:55:24;;;;;;;1.88;0.80;;;;;;;21.95;nan;103082.25;5058806;28;20059;-59
2021/04/16 13:57:49;;;;;;;4.30;1.48;;;;;;;21.88;nan;103079.22;5071186;28;20029;-59
2021/04/16 14:00:19;;;;;;;2.10;0.80;;;;;;;22.02;nan;103082.56;5071758;28;20024;-58